Time;durP1;ratioP1;P1;durP2;ratioP2;P2;SDS_P1;SDS_P2;PMS_P1;PMS_P2;Temp;Humidity;BMP_temperature;BMP_pressure;BME280_temperature;BME280_humidity;BME280_pressure;Samples;Min_cycle;Max_cycle;Signal;HPM_P1;HPM_P2
2021/09/08 00:01:13;;;;;;;19.75;13.45;;;;;;;24.10;62.27;101441.41;5069337;28;20044;-63
2021/09/08 00:03:39;;;;;;;20.25;14.07;;;;;;;24.11;61.60;101442.22;5069525;28;20024;-63
2021/09/08 00:06:04;;;;;;;23.80;15.88;;;;;;;24.10;61.81;101440.56;5057531;28;20158;-63
2021/09/08 00:08:30;;;;;;;19.73;14.05;;;;;;;24.09;61.59;101429.03;5070996;28;20036;-63
2021/09/08 00:10:55;;;;;;;19.90;14.55;;;;;;;24.10;61.75;101438.72;5069725;28;20063;-63
2021/09/08 00:13:21;;;;;;;21.00;14.85;;;;;;;24.10;61.79;101435.22;5070276;28;20033;-63
2021/09/08 00:15:47;;;;;;;19.52;13.98;;;;;;;24.10;61.77;101436.03;5068232;28;20028;-63
2021/09/08 00:18:12;;;;;;;19.15;13.88;;;;;;;24.10;61.63;101430.66;5069884;28;20043;-63
2021/09/08 00:20:38;;;;;;;19.60;14.32;;;;;;;24.11;61.71;101428.81;5070282;28;20097;-64
2021/09/08 00:23:03;;;;;;;20.48;14.38;;;;;;;24.10;61.78;101424.50;5069582;28;20037;-63
2021/09/08 00:25:29;;;;;;;20.42;14.20;;;;;;;24.10;61.96;101428.00;5069492;28;20055;-63
2021/09/08 00:27:54;;;;;;;20.15;13.85;;;;;;;24.10;61.66;101427.16;5069221;28;20119;-63
2021/09/08 00:30:20;;;;;;;19.88;14.15;;;;;;;24.11;61.68;101426.97;5070089;28;20123;-63
2021/09/08 00:32:45;;;;;;;19.27;14.05;;;;;;;24.10;61.52;101422.63;5068620;28;20490;-63
2021/09/08 00:35:11;;;;;;;17.95;13.05;;;;;;;24.10;61.67;101419.94;5069780;28;20444;-63
2021/09/08 00:37:41;;;;;;;19.52;13.55;;;;;;;24.09;61.53;101412.13;5067819;28;20029;-63
2021/09/08 00:40:08;;;;;;;20.05;14.00;;;;;;;24.10;61.54;101403.88;5067907;28;20032;-63
2021/09/08 00:42:34;;;;;;;18.00;12.55;;;;;;;24.10;61.45;101403.03;5068082;28;20064;-63
2021/09/08 00:44:59;;;;;;;17.15;12.57;;;;;;;24.10;61.55;101403.03;5068763;28;20072;-63
2021/09/08 00:47:25;;;;;;;18.17;13.20;;;;;;;24.09;61.48;101398.72;5069005;28;20056;-63
2021/09/08 00:49:50;;;;;;;21.38;14.50;;;;;;;24.10;61.60;101392.31;5067485;28;20058;-63
2021/09/08 00:52:16;;;;;;;20.33;13.98;;;;;;;24.09;61.31;101391.50;5068817;28;20436;-63
2021/09/08 00:54:50;;;;;;;18.98;13.70;;;;;;;24.09;61.46;101390.69;5062637;28;20033;-63
2021/09/08 00:57:17;;;;;;;18.85;13.32;;;;;;;24.09;61.73;101393.38;5067626;28;20118;-63
2021/09/08 00:59:43;;;;;;;17.48;12.75;;;;;;;24.09;61.69;101383.47;5067865;28;20036;-63
2021/09/08 01:02:09;;;;;;;19.45;13.55;;;;;;;24.09;61.34;101385.31;5066859;28;20054;-63
2021/09/08 01:04:35;;;;;;;17.48;13.27;;;;;;;24.09;61.28;101380.78;5068667;28;20537;-63
2021/09/08 01:07:05;;;;;;;18.70;12.80;;;;;;;24.08;61.37;101378.31;5068488;28;20083;-63
2021/09/08 01:09:31;;;;;;;17.77;13.10;;;;;;;24.09;61.32;101374.59;5069363;28;20135;-63
2021/09/08 01:11:57;;;;;;;17.48;12.63;;;;;;;24.10;61.29;101368.19;5068219;28;20052;-63
2021/09/08 01:14:23;;;;;;;17.85;12.93;;;;;;;24.09;61.24;101367.38;5064581;28;20044;-63
2021/09/08 01:16:54;;;;;;;18.00;11.70;;;;;;;24.08;61.33;101362.25;5060102;28;20036;-63
2021/09/08 01:19:20;;;;;;;15.70;11.52;;;;;;;24.09;61.33;101358.53;5069060;28;20103;-63
2021/09/08 01:21:46;;;;;;;16.55;12.38;;;;;;;24.09;61.38;101358.53;5067454;28;20063;-64
2021/09/08 01:24:11;;;;;;;18.17;12.27;;;;;;;24.08;61.19;101354.19;5068219;28;20831;-63
2021/09/08 01:26:39;;;;;;;15.65;11.73;;;;;;;24.08;61.22;101348.84;5061031;28;20381;-63
2021/09/08 01:29:05;;;;;;;17.98;11.68;;;;;;;24.09;61.09;101353.16;5062974;28;20140;-63
2021/09/08 01:31:31;;;;;;;16.63;11.68;;;;;;;24.08;60.94;101355.00;5067206;28;20143;-63
2021/09/08 01:33:56;;;;;;;19.58;13.70;;;;;;;24.08;61.37;101344.28;5068590;28;20563;-63
2021/09/08 01:36:22;;;;;;;17.67;12.25;;;;;;;24.08;61.22;101333.56;5068023;28;20079;-63
2021/09/08 01:38:47;;;;;;;15.13;11.30;;;;;;;24.08;61.04;101338.13;5062945;28;20420;-63
2021/09/08 01:41:13;;;;;;;14.30;10.60;;;;;;;24.07;61.15;101331.94;5068870;28;20336;-63
2021/09/08 01:43:38;;;;;;;14.68;10.95;;;;;;;24.07;61.16;101321.22;5068207;28;20413;-63
2021/09/08 01:46:04;;;;;;;13.95;9.45;;;;;;;24.08;61.08;101319.34;5068244;28;20048;-63
2021/09/08 01:48:29;;;;;;;15.82;11.13;;;;;;;24.08;61.16;101319.34;5059622;28;20460;-63
2021/09/08 01:50:55;;;;;;;14.18;10.02;;;;;;;24.07;61.17;101312.34;5067133;28;20043;-62
2021/09/08 01:53:22;;;;;;;13.13;9.50;;;;;;;24.07;61.11;101312.34;5061866;28;20081;-63
2021/09/08 01:55:48;;;;;;;13.30;9.40;;;;;;;24.08;61.00;101311.31;5064962;28;20324;-63
2021/09/08 01:58:13;;;;;;;15.38;11.45;;;;;;;24.07;60.88;101301.63;5067877;28;20039;-63
2021/09/08 02:00:39;;;;;;;12.32;9.60;;;;;;;24.07;61.15;101301.63;5054512;28;20354;-63
2021/09/08 02:03:04;;;;;;;12.02;8.98;;;;;;;24.07;60.98;101301.63;5061024;28;20069;-63
2021/09/08 02:05:30;;;;;;;11.80;8.90;;;;;;;24.07;60.83;101298.94;5060963;28;20029;-63
2021/09/08 02:07:55;;;;;;;10.32;8.30;;;;;;;24.07;60.97;101296.28;5056665;28;20060;-63
2021/09/08 02:10:21;;;;;;;11.82;8.88;;;;;;;24.07;61.03;101290.91;5067980;28;20028;-63
2021/09/08 02:12:46;;;;;;;11.60;8.60;;;;;;;24.06;60.92;101283.91;5067893;28;20079;-62
2021/09/08 02:15:12;;;;;;;11.07;8.70;;;;;;;24.06;60.87;101278.53;5050290;28;20778;-62
2021/09/08 02:17:37;;;;;;;11.35;8.65;;;;;;;24.07;61.11;101277.50;5046301;28;20502;-62
2021/09/08 02:20:04;;;;;;;11.00;8.18;;;;;;;24.06;60.86;101267.81;5058961;28;20040;-62
2021/09/08 02:22:29;;;;;;;11.35;8.32;;;;;;;24.06;60.91;101274.00;5067785;28;20144;-62
2021/09/08 02:24:54;;;;;;;12.25;8.27;;;;;;;24.05;60.87;101269.69;5067795;28;20535;-62
2021/09/08 02:27:20;;;;;;;10.00;8.00;;;;;;;24.05;60.61;101267.00;5062709;28;20029;-62
2021/09/08 02:29:45;;;;;;;11.50;8.50;;;;;;;24.05;60.67;101268.88;5067770;28;20025;-62
2021/09/08 02:32:11;;;;;;;10.85;8.13;;;;;;;24.06;60.75;101273.19;5055558;28;20032;-62
2021/09/08 02:34:36;;;;;;;9.80;7.90;;;;;;;24.04;60.59;101269.91;5066166;28;20032;-62
2021/09/08 02:37:02;;;;;;;10.90;7.32;;;;;;;24.04;60.70;101270.72;5065276;28;20593;-62
2021/09/08 02:39:28;;;;;;;12.18;7.18;;;;;;;24.05;60.66;101266.19;5064093;28;20040;-62
2021/09/08 02:41:53;;;;;;;9.68;7.25;;;;;;;24.03;60.53;101269.09;5067566;28;20033;-62
2021/09/08 02:44:19;;;;;;;9.10;7.30;;;;;;;24.05;60.43;101267.00;5067701;28;20041;-62
2021/09/08 02:46:44;;;;;;;10.00;7.00;;;;;;;24.04;60.65;101265.38;5054090;28;20024;-62
2021/09/08 02:49:10;;;;;;;9.52;7.07;;;;;;;24.05;60.51;101258.16;5063018;28;20407;-62
2021/09/08 02:51:36;;;;;;;10.27;7.00;;;;;;;24.04;60.47;101248.47;5063893;28;20036;-62
2021/09/08 02:54:01;;;;;;;9.75;7.25;;;;;;;24.04;60.69;101251.16;5065766;28;20039;-63
2021/09/08 02:56:27;;;;;;;9.93;7.03;;;;;;;24.03;60.60;101241.47;5066120;28;20052;-63
2021/09/08 02:58:52;;;;;;;9.02;7.32;;;;;;;24.05;60.52;101239.38;5066408;28;20032;-62
2021/09/08 03:01:18;;;;;;;11.60;7.18;;;;;;;24.03;60.58;101230.75;5067161;28;20033;-62
2021/09/08 03:03:43;;;;;;;10.23;7.07;;;;;;;24.03;60.39;101236.09;5049934;28;20099;-62
2021/09/08 03:06:09;;;;;;;8.82;6.45;;;;;;;24.02;60.67;101227.25;5061500;28;20052;-62
2021/09/08 03:08:34;;;;;;;9.27;6.47;;;;;;;24.03;60.32;101225.38;5070935;28;20154;-62
2021/09/08 03:11:00;;;;;;;9.60;7.40;;;;;;;24.03;60.28;101220.03;5071269;28;20035;-62
2021/09/08 03:13:25;;;;;;;9.55;7.68;;;;;;;24.03;60.08;101214.66;5065270;28;20175;-62
2021/09/08 03:15:51;;;;;;;9.73;6.78;;;;;;;24.02;60.18;101215.69;5071478;28;20024;-62
2021/09/08 03:18:16;;;;;;;8.27;6.15;;;;;;;24.02;60.33;101213.03;5070874;28;20040;-62
2021/09/08 03:20:42;;;;;;;11.40;8.05;;;;;;;24.01;60.19;101209.53;5071044;28;20036;-63
2021/09/08 03:23:07;;;;;;;10.18;7.40;;;;;;;24.01;60.42;101214.88;5070838;28;20060;-62
2021/09/08 03:25:33;;;;;;;9.73;7.22;;;;;;;24.01;60.39;101216.75;5068190;28;20032;-62
2021/09/08 03:27:58;;;;;;;8.60;6.70;;;;;;;23.99;60.29;101202.75;5069082;28;20404;-62
2021/09/08 03:30:24;;;;;;;8.52;6.70;;;;;;;24.00;60.26;101202.53;5071042;28;20040;-62
2021/09/08 03:32:50;;;;;;;9.23;6.75;;;;;;;24.01;60.49;101197.97;5071104;28;20031;-62
2021/09/08 03:35:15;;;;;;;10.27;7.18;;;;;;;24.01;60.42;101197.97;5060480;28;20036;-62
2021/09/08 03:37:42;;;;;;;9.80;6.90;;;;;;;24.00;60.09;101199.84;5063919;28;20471;-62
2021/09/08 03:40:08;;;;;;;10.15;7.03;;;;;;;24.00;60.09;101199.03;5071222;28;20608;-62
2021/09/08 03:42:35;;;;;;;9.35;6.70;;;;;;;24.00;60.20;101183.75;5070465;28;20052;-62
2021/09/08 03:45:01;;;;;;;7.72;6.45;;;;;;;24.01;60.23;101192.63;5071144;28;20029;-62
2021/09/08 03:47:27;;;;;;;9.15;7.18;;;;;;;24.01;60.32;101185.41;5068958;28;20096;-61
2021/09/08 03:49:52;;;;;;;8.90;7.00;;;;;;;24.00;60.08;101173.03;5066751;28;20040;-62
2021/09/08 03:52:18;;;;;;;10.93;7.28;;;;;;;24.01;60.17;101179.22;5069882;28;20040;-62
2021/09/08 03:54:44;;;;;;;9.88;6.90;;;;;;;24.01;60.39;101179.22;5049409;28;20136;-62
2021/09/08 03:57:09;;;;;;;8.10;6.38;;;;;;;23.99;60.34;101167.91;5060608;28;20032;-62
2021/09/08 03:59:36;;;;;;;9.25;6.38;;;;;;;24.00;60.17;101167.69;5070628;28;20702;-62
2021/09/08 04:02:02;;;;;;;9.50;7.43;;;;;;;24.00;60.02;101166.88;5063977;28;20029;-62
2021/09/08 04:04:27;;;;;;;9.32;6.75;;;;;;;24.00;60.19;101158.81;5070465;28;20173;-62
2021/09/08 04:06:53;;;;;;;9.57;6.85;;;;;;;24.00;60.36;101159.66;5069881;28;20169;-62
2021/09/08 04:09:18;;;;;;;10.82;7.68;;;;;;;24.00;60.34;101161.50;5070575;28;20047;-61
2021/09/08 04:11:45;;;;;;;11.90;7.05;;;;;;;23.99;60.26;101162.53;5069937;28;20502;-62
2021/09/08 04:14:10;;;;;;;10.50;6.47;;;;;;;23.99;60.44;101157.19;5060546;28;20032;-62
2021/09/08 04:16:36;;;;;;;8.85;6.85;;;;;;;23.99;60.21;101155.31;5070723;28;20097;-62
2021/09/08 04:19:01;;;;;;;10.43;6.68;;;;;;;23.98;60.18;101150.97;5069856;28;20021;-62
2021/09/08 04:21:27;;;;;;;8.50;6.63;;;;;;;23.99;60.28;101146.47;5069621;28;20197;-62
2021/09/08 04:23:53;;;;;;;10.63;6.93;;;;;;;23.98;60.11;101148.28;5070016;28;20048;-62
2021/09/08 04:26:18;;;;;;;10.02;7.05;;;;;;;23.99;60.15;101143.78;5063219;28;20040;-62
2021/09/08 04:28:44;;;;;;;11.15;7.82;;;;;;;23.98;60.33;101137.56;5068465;28;20045;-62
2021/09/08 04:31:09;;;;;;;8.50;7.03;;;;;;;23.99;60.25;101133.06;5069995;28;20048;-62
2021/09/08 04:33:35;;;;;;;8.65;6.85;;;;;;;23.99;60.06;101127.72;5070211;28;20028;-62
2021/09/08 04:36:00;;;;;;;10.15;7.47;;;;;;;23.99;60.36;101133.06;5068914;28;20170;-62
2021/09/08 04:38:26;;;;;;;10.02;6.97;;;;;;;23.98;60.08;101131.41;5066151;28;20489;-62
2021/09/08 04:40:51;;;;;;;8.85;6.60;;;;;;;23.99;60.15;101138.44;5069656;28;20040;-62
2021/09/08 04:43:17;;;;;;;10.80;7.05;;;;;;;23.99;60.37;101138.44;5069606;28;20032;-62
2021/09/08 04:45:42;;;;;;;8.55;6.63;;;;;;;23.98;60.46;101137.56;5069161;28;20504;-62
2021/09/08 04:48:08;;;;;;;9.70;7.07;;;;;;;23.98;60.19;101129.53;5069014;28;20041;-62
2021/09/08 04:50:34;;;;;;;10.77;7.38;;;;;;;23.98;60.27;101121.50;5065862;28;20044;-62
2021/09/08 04:52:59;;;;;;;12.15;7.43;;;;;;;23.98;60.36;101121.50;5050245;28;20041;-62
2021/09/08 04:55:25;;;;;;;9.82;7.68;;;;;;;23.99;60.38;101119.66;5069192;28;20464;-62
2021/09/08 04:57:50;;;;;;;9.65;7.05;;;;;;;23.97;60.31;101111.81;5068175;28;20127;-62
2021/09/08 05:00:16;;;;;;;9.10;7.00;;;;;;;23.98;60.08;101118.00;5066586;28;20037;-62
2021/09/08 05:02:41;;;;;;;9.30;6.80;;;;;;;23.98;60.35;101118.00;5064257;28;20571;-62
2021/09/08 05:05:07;;;;;;;8.60;6.55;;;;;;;23.98;60.12;101121.50;5068878;28;20338;-62
2021/09/08 05:07:33;;;;;;;10.35;7.32;;;;;;;23.98;60.12;101118.81;5067934;28;20052;-62
2021/09/08 05:09:58;;;;;;;9.40;7.10;;;;;;;23.98;60.19;101115.31;5068568;28;20047;-62
2021/09/08 05:12:24;;;;;;;9.27;6.57;;;;;;;23.97;60.08;101111.81;5068672;28;20123;-62
2021/09/08 05:14:49;;;;;;;10.38;7.30;;;;;;;23.97;60.51;101109.13;5061868;28;20166;-62
2021/09/08 05:17:15;;;;;;;10.68;7.93;;;;;;;23.97;60.19;101098.41;5068783;28;20384;-62
2021/09/08 05:19:40;;;;;;;10.02;7.43;;;;;;;23.98;60.23;101107.28;5069059;28;20035;-62
2021/09/08 05:22:05;;;;;;;11.32;7.63;;;;;;;23.97;60.30;101111.81;5065967;28;20029;-62
2021/09/08 05:24:31;;;;;;;11.20;8.15;;;;;;;23.97;60.31;101113.69;5068953;28;20040;-62
2021/09/08 05:26:56;;;;;;;10.40;7.85;;;;;;;23.97;60.38;101116.34;5064574;28;20040;-62
2021/09/08 05:29:22;;;;;;;9.32;6.97;;;;;;;23.97;60.41;101103.78;5068892;28;20039;-62
2021/09/08 05:31:47;;;;;;;11.73;7.88;;;;;;;23.96;60.27;101104.00;5069355;28;20497;-62
2021/09/08 05:34:13;;;;;;;9.35;7.22;;;;;;;23.96;60.24;101106.69;5068575;28;20036;-62
2021/09/08 05:36:38;;;;;;;9.55;6.97;;;;;;;23.96;60.59;101106.69;5068473;28;20092;-62
2021/09/08 05:39:04;;;;;;;8.98;7.05;;;;;;;23.96;60.38;101099.47;5064800;28;20511;-62
2021/09/08 05:41:29;;;;;;;9.38;6.95;;;;;;;23.96;60.17;101101.31;5068820;28;20491;-62
2021/09/08 05:43:55;;;;;;;15.50;9.68;;;;;;;23.96;60.12;101094.09;5068319;28;20067;-62
2021/09/08 05:46:21;;;;;;;9.55;7.20;;;;;;;23.96;60.27;101090.59;5067781;28;20131;-62
2021/09/08 05:48:46;;;;;;;11.27;7.90;;;;;;;23.97;60.44;101097.59;5069058;28;20089;-62
2021/09/08 05:51:12;;;;;;;9.32;6.90;;;;;;;23.96;60.19;101094.09;5055507;28;20801;-62
2021/09/08 05:53:38;;;;;;;11.15;8.18;;;;;;;23.96;60.52;101086.06;5067435;28;20047;-62
2021/09/08 05:56:04;;;;;;;10.75;8.15;;;;;;;23.97;60.45;101086.88;5066574;28;20096;-62
2021/09/08 05:58:29;;;;;;;12.98;8.57;;;;;;;23.96;60.22;101085.25;5059590;28;20067;-61
2021/09/08 06:00:55;;;;;;;12.32;8.20;;;;;;;23.96;60.44;101082.56;5066763;28;20025;-62
2021/09/08 06:03:20;;;;;;;13.52;7.68;;;;;;;23.95;60.55;101076.38;5057722;28;20068;-61
2021/09/08 06:05:46;;;;;;;11.38;8.05;;;;;;;23.96;60.72;101067.31;5067696;28;20048;-61
2021/09/08 06:08:11;;;;;;;12.52;8.20;;;;;;;23.97;60.44;101062.78;5067200;28;20529;-62
2021/09/08 06:10:37;;;;;;;10.60;7.82;;;;;;;23.97;60.37;101058.22;5049530;28;20039;-62
2021/09/08 06:13:02;;;;;;;13.15;8.40;;;;;;;23.97;60.66;101062.78;5066944;28;20045;-62
2021/09/08 06:15:28;;;;;;;13.13;7.97;;;;;;;23.98;60.48;101049.16;5066521;28;20032;-61
2021/09/08 06:17:54;;;;;;;15.07;10.63;;;;;;;23.98;60.35;101051.00;5067929;28;20049;-61
2021/09/08 06:20:19;;;;;;;12.07;7.75;;;;;;;23.98;60.54;101040.28;5048965;28;20075;-61
2021/09/08 06:22:45;;;;;;;10.60;8.13;;;;;;;23.98;60.74;101033.06;5067967;28;20051;-61
2021/09/08 06:25:11;;;;;;;12.02;8.77;;;;;;;23.99;60.93;101039.28;5048282;28;20068;-63
2021/09/08 06:27:37;;;;;;;11.10;8.07;;;;;;;24.00;60.84;101031.00;5074441;28;20039;-62
2021/09/08 06:30:06;;;;;;;9.68;7.72;;;;;;;24.00;60.85;101040.91;5083040;28;20085;-63
2021/09/08 06:32:31;;;;;;;12.93;7.80;;;;;;;24.00;60.93;101039.06;5080464;28;20028;-63
2021/09/08 06:34:57;;;;;;;13.15;8.23;;;;;;;24.01;60.92;101039.88;5027050;28;20032;-65
2021/09/08 06:37:22;;;;;;;11.73;8.23;;;;;;;24.00;60.96;101043.59;5065244;28;20040;-65
2021/09/08 06:39:48;;;;;;;12.63;8.23;;;;;;;24.01;61.26;101045.22;5072013;28;20103;-64
2021/09/08 06:42:13;;;;;;;17.45;9.23;;;;;;;24.01;61.40;101050.59;5027580;28;20129;-64
2021/09/08 06:44:38;;;;;;;15.38;9.77;;;;;;;24.01;61.54;101055.94;5069750;28;20032;-68
2021/09/08 06:47:04;;;;;;;12.60;8.55;;;;;;;24.02;61.63;101062.94;5053971;28;20038;-62
2021/09/08 06:49:30;;;;;;;14.07;9.15;;;;;;;24.02;61.55;101053.06;5077200;28;20039;-62
2021/09/08 06:51:55;;;;;;;11.32;7.85;;;;;;;24.04;61.49;101064.38;5072913;28;20037;-63
2021/09/08 06:54:21;;;;;;;10.98;8.18;;;;;;;24.06;61.39;101061.47;5050439;28;20235;-63
2021/09/08 06:56:46;;;;;;;11.02;7.95;;;;;;;24.07;61.60;101061.25;5077112;28;20115;-64
2021/09/08 06:59:12;;;;;;;12.13;8.18;;;;;;;24.09;61.84;101055.66;5085604;28;20498;-63
2021/09/08 07:01:37;;;;;;;13.50;8.45;;;;;;;24.09;61.90;101047.63;5048180;28;20566;-63
2021/09/08 07:04:03;;;;;;;11.50;8.73;;;;;;;24.10;61.88;101049.25;5062873;28;20472;-63
2021/09/08 07:06:28;;;;;;;12.38;9.18;;;;;;;24.10;62.22;101035.84;5084349;28;20090;-63
2021/09/08 07:08:54;;;;;;;12.27;7.68;;;;;;;24.10;62.17;101036.66;5071658;28;20432;-63
2021/09/08 07:11:20;;;;;;;13.18;8.43;;;;;;;24.10;62.20;101027.81;5033269;28;20068;-63
2021/09/08 07:13:46;;;;;;;9.70;7.47;;;;;;;24.10;62.51;101030.50;5068890;28;20678;-63
2021/09/08 07:16:12;;;;;;;9.95;7.50;;;;;;;24.11;62.36;101034.81;5070843;28;20036;-63
2021/09/08 07:18:38;;;;;;;11.73;7.20;;;;;;;24.11;62.26;101026.75;5053409;28;20460;-63
2021/09/08 07:21:03;;;;;;;12.93;9.10;;;;;;;24.11;62.13;101016.03;5070378;28;20036;-63
2021/09/08 07:23:30;;;;;;;9.60;7.60;;;;;;;24.12;62.14;101015.00;5053461;28;20043;-63
2021/09/08 07:25:55;;;;;;;11.60;7.80;;;;;;;24.11;62.20;101011.50;5065027;28;20029;-63
2021/09/08 07:28:21;;;;;;;14.18;8.50;;;;;;;24.12;62.20;101015.00;5044336;28;20357;-63
2021/09/08 07:30:49;;;;;;;13.77;8.93;;;;;;;24.12;62.16;101039.13;5035617;28;20025;-63
2021/09/08 07:33:15;;;;;;;13.85;8.65;;;;;;;24.12;62.20;101044.47;5052631;28;20048;-64
2021/09/08 07:35:40;;;;;;;14.13;7.38;;;;;;;24.10;62.40;101039.34;5052695;28;20032;-65
2021/09/08 07:38:06;;;;;;;12.43;8.23;;;;;;;24.11;62.65;101037.50;5064378;28;20040;-67
2021/09/08 07:40:32;;;;;;;11.98;8.48;;;;;;;24.12;62.53;101031.09;5051788;28;20127;-62
2021/09/08 07:42:58;;;;;;;11.75;8.45;;;;;;;24.12;62.62;101025.72;5070129;28;20032;-65
2021/09/08 07:45:24;;;;;;;14.55;9.52;;;;;;;24.12;62.46;101021.19;5049499;28;20093;-63
2021/09/08 07:47:50;;;;;;;21.60;11.45;;;;;;;24.11;62.78;101016.88;5035372;28;20056;-63
2021/09/08 07:50:16;;;;;;;20.40;10.88;;;;;;;24.11;62.67;101021.41;5050841;28;20048;-64
2021/09/08 07:52:42;;;;;;;18.83;10.77;;;;;;;24.10;62.42;101025.94;5050888;28;20064;-63
2021/09/08 07:55:08;;;;;;;20.60;12.73;;;;;;;24.10;62.57;101019.78;5071822;28;20071;-63
2021/09/08 07:57:33;;;;;;;19.65;11.18;;;;;;;24.09;62.34;101010.91;5051677;28;20071;-64
2021/09/08 07:59:59;;;;;;;16.77;11.20;;;;;;;24.09;62.20;101012.78;5070637;28;20480;-64
2021/09/08 08:02:24;;;;;;;22.65;12.93;;;;;;;24.08;62.24;101008.47;5062733;28;20055;-63
2021/09/08 08:04:50;;;;;;;21.75;12.38;;;;;;;24.08;62.14;101003.09;5070391;28;20040;-64
2021/09/08 08:07:15;;;;;;;25.48;13.05;;;;;;;24.07;62.13;101004.13;5041572;28;20049;-63
2021/09/08 08:09:43;;;;;;;19.20;12.23;;;;;;;24.06;62.27;100994.47;5062321;28;20052;-64
2021/09/08 08:12:09;;;;;;;20.23;13.10;;;;;;;24.06;61.93;101002.50;5069689;28;20032;-63
2021/09/08 08:14:38;;;;;;;17.02;11.80;;;;;;;24.05;61.92;101009.72;5070632;28;20059;-63
2021/09/08 08:17:05;;;;;;;22.83;13.98;;;;;;;24.05;61.73;101001.69;5068527;28;20044;-64
2021/09/08 08:19:31;;;;;;;17.17;11.60;;;;;;;24.04;61.89;100996.53;5068790;28;20410;-63
2021/09/08 08:21:57;;;;;;;21.80;12.77;;;;;;;24.05;61.83;100998.19;5069386;28;20129;-63
2021/09/08 08:24:22;;;;;;;18.35;12.15;;;;;;;24.04;61.94;100999.22;5070155;28;20084;-64
2021/09/08 08:26:48;;;;;;;18.65;12.57;;;;;;;24.03;61.80;100995.72;5070114;28;20086;-64
2021/09/08 08:29:13;;;;;;;20.83;12.45;;;;;;;24.04;61.74;101004.59;5069244;28;20143;-64
2021/09/08 08:31:39;;;;;;;18.15;12.23;;;;;;;24.03;61.89;101008.31;5068526;28;20048;-64
2021/09/08 08:34:04;;;;;;;21.40;11.80;;;;;;;24.02;61.81;101012.03;5069749;28;20048;-64
2021/09/08 08:36:30;;;;;;;19.15;12.80;;;;;;;24.02;61.89;101009.34;5069244;28;20047;-64
2021/09/08 08:38:56;;;;;;;17.80;11.93;;;;;;;24.02;62.03;101010.16;5069784;28;20032;-63
2021/09/08 08:41:23;;;;;;;16.42;12.05;;;;;;;24.00;61.71;101009.56;5069600;28;20112;-63
2021/09/08 08:43:49;;;;;;;20.23;12.13;;;;;;;24.01;61.84;101013.06;5069660;28;20028;-64
2021/09/08 08:46:16;;;;;;;17.58;11.50;;;;;;;24.00;61.67;101009.56;5067804;28;20043;-64
2021/09/08 08:48:41;;;;;;;14.77;10.57;;;;;;;24.01;61.61;101008.53;5069818;28;20051;-64
2021/09/08 08:51:08;;;;;;;17.52;11.68;;;;;;;24.01;61.70;101021.94;5068937;28;20021;-64
2021/09/08 08:53:34;;;;;;;16.42;12.10;;;;;;;24.00;61.54;101014.94;5068265;28;20727;-64
2021/09/08 08:55:59;;;;;;;16.67;11.63;;;;;;;24.01;61.58;101023.78;5068994;28;20170;-63
2021/09/08 08:58:24;;;;;;;17.67;10.68;;;;;;;24.00;61.86;101012.25;5067560;28;20036;-63
2021/09/08 09:01:31;;;;;;;14.40;10.32;;;;;;;23.94;61.81;101012.31;5069001;28;20044;-65
2021/09/08 09:04:09;;;;;;;17.17;10.15;;;;;;;23.97;61.86;101012.66;5017144;28;20124;-64
2021/09/08 09:06:41;;;;;;;13.25;10.20;;;;;;;24.00;61.82;101016.78;5025971;28;20057;-64
2021/09/08 09:09:15;;;;;;;16.38;11.30;;;;;;;23.97;61.73;101020.72;5052559;28;20040;-63
2021/09/08 09:11:43;;;;;;;18.60;11.52;;;;;;;23.98;61.53;101022.34;5069006;28;20094;-64
2021/09/08 09:14:10;;;;;;;15.52;10.77;;;;;;;23.99;61.65;101025.88;5068915;28;20387;-64
2021/09/08 09:16:39;;;;;;;16.10;9.88;;;;;;;23.98;61.79;101021.53;5069162;28;20033;-64
2021/09/08 09:19:06;;;;;;;16.65;10.98;;;;;;;23.99;61.62;101017.84;5068684;28;20446;-63
2021/09/08 09:21:32;;;;;;;14.13;10.30;;;;;;;23.99;61.62;101025.88;5068143;28;20147;-64
2021/09/08 09:24:01;;;;;;;16.08;10.43;;;;;;;23.97;61.65;101020.72;5068697;28;20060;-63
2021/09/08 09:26:33;;;;;;;14.32;10.23;;;;;;;23.97;61.62;101011.84;5068752;28;20175;-63
2021/09/08 09:29:09;;;;;;;13.55;9.40;;;;;;;23.96;61.41;101016.41;5068076;28;20382;-64
2021/09/08 09:31:50;;;;;;;15.63;10.50;;;;;;;23.95;61.56;101001.34;5068694;28;20414;-63
2021/09/08 09:34:16;;;;;;;14.45;9.93;;;;;;;23.99;61.60;100996.41;5068110;28;20040;-64
2021/09/08 09:36:42;;;;;;;14.18;9.95;;;;;;;23.99;61.56;101012.47;5067164;28;20373;-63
2021/09/08 09:39:07;;;;;;;13.40;10.20;;;;;;;24.00;61.90;101012.25;5066914;28;20044;-63
2021/09/08 09:41:37;;;;;;;15.65;10.15;;;;;;;24.01;61.45;101021.94;5068224;28;20036;-63
2021/09/08 09:44:11;;;;;;;14.55;9.93;;;;;;;24.00;61.82;101017.63;5066962;28;20515;-63
2021/09/08 09:46:41;;;;;;;14.07;9.77;;;;;;;24.00;61.64;101012.25;5068417;28;20021;-64
2021/09/08 09:49:07;;;;;;;15.48;11.10;;;;;;;24.01;61.69;101007.72;5068289;28;20048;-64
2021/09/08 09:51:32;;;;;;;15.18;10.32;;;;;;;24.01;61.52;101000.50;5067942;28;20824;-63
2021/09/08 09:53:59;;;;;;;15.25;9.65;;;;;;;24.01;61.59;101002.34;5068735;28;20494;-64
2021/09/08 09:56:24;;;;;;;15.13;9.60;;;;;;;24.01;61.30;100991.63;5067762;28;20226;-64
2021/09/08 09:58:51;;;;;;;13.30;9.10;;;;;;;24.00;61.45;100992.69;5066814;28;20112;-63
2021/09/08 10:01:18;;;;;;;13.07;9.43;;;;;;;23.98;61.11;100990.19;5067249;28;20048;-63
2021/09/08 10:03:43;;;;;;;13.20;8.80;;;;;;;23.97;60.91;100983.19;5068076;28;20033;-64
2021/09/08 10:06:10;;;;;;;12.30;8.32;;;;;;;23.97;60.80;100975.16;5067826;28;20056;-64
2021/09/08 10:08:42;;;;;;;13.57;9.13;;;;;;;23.96;60.83;100978.06;5067830;28;20036;-64
2021/09/08 10:11:10;;;;;;;11.77;8.40;;;;;;;23.97;60.65;100977.84;5068318;28;20025;-64
2021/09/08 10:13:46;;;;;;;12.13;7.95;;;;;;;23.94;60.67;100972.94;5067468;28;20025;-63
2021/09/08 10:16:11;;;;;;;11.35;8.43;;;;;;;23.97;60.51;100963.63;5068552;28;20043;-64
2021/09/08 10:18:41;;;;;;;12.45;8.57;;;;;;;23.96;60.35;100968.16;5049751;28;20052;-63
2021/09/08 10:21:11;;;;;;;13.95;8.40;;;;;;;23.96;60.55;100967.34;5067845;28;20119;-63
2021/09/08 10:23:44;;;;;;;13.48;8.10;;;;;;;23.94;60.61;100972.13;5067791;28;20036;-64
2021/09/08 10:26:16;;;;;;;10.30;8.25;;;;;;;23.95;60.42;100968.38;5068359;28;20029;-64
2021/09/08 10:28:44;;;;;;;13.20;8.90;;;;;;;23.95;60.33;100961.16;5067968;28;20055;-64
2021/09/08 10:31:13;;;;;;;12.32;8.48;;;;;;;23.95;60.14;100961.16;5068273;28;20234;-63
2021/09/08 10:33:39;;;;;;;13.07;8.52;;;;;;;23.95;60.40;100960.34;5068329;28;20130;-64
2021/09/08 10:36:09;;;;;;;11.13;7.85;;;;;;;23.96;60.15;100945.91;5067345;28;20033;-63
2021/09/08 10:38:34;;;;;;;10.32;8.18;;;;;;;23.94;60.23;100940.78;5066530;28;20103;-64
2021/09/08 10:41:04;;;;;;;10.77;8.18;;;;;;;23.94;60.02;100939.97;5067449;28;20463;-64
2021/09/08 10:43:32;;;;;;;11.77;7.88;;;;;;;23.94;60.10;100937.28;5067567;28;20121;-63
2021/09/08 10:45:58;;;;;;;9.00;7.25;;;;;;;23.93;59.79;100941.81;5067561;28;20131;-64
2021/09/08 10:48:45;;;;;;;10.57;7.80;;;;;;;23.89;59.97;100937.94;5067581;28;20059;-63
2021/09/08 10:51:39;;;;;;;10.05;8.02;;;;;;;23.87;59.86;100927.47;5067188;28;20484;-63
2021/09/08 10:54:06;;;;;;;11.30;7.93;;;;;;;23.93;59.72;100920.38;5067893;28;20037;-63
2021/09/08 10:56:44;;;;;;;12.65;7.90;;;;;;;23.89;59.68;100914.66;5067320;28;20060;-64
2021/09/08 10:59:09;;;;;;;10.65;7.85;;;;;;;23.93;59.66;100924.94;5067462;28;20463;-63
2021/09/08 11:01:35;;;;;;;10.77;7.60;;;;;;;23.92;59.57;100908.03;5065249;28;20056;-63
2021/09/08 11:04:01;;;;;;;10.70;7.00;;;;;;;23.94;59.18;100897.09;5066404;28;20032;-64
2021/09/08 11:06:50;;;;;;;9.90;7.65;;;;;;;23.88;59.42;100899.63;5066633;28;20045;-63
2021/09/08 11:09:18;;;;;;;10.10;7.40;;;;;;;23.93;59.09;100892.78;5042701;28;20140;-63
2021/09/08 11:12:02;;;;;;;9.50;7.35;;;;;;;23.88;59.09;100890.78;5067434;28;20035;-63
2021/09/08 11:14:47;;;;;;;9.98;7.55;;;;;;;23.86;59.24;100891.00;5067575;28;20128;-63